sensor_id;sensor_type;location;lat;lon;timestamp;temperature;humidity
18823;DHT22;9540;51.550;7.980;2023-07-30T00:02:15;16.70;99.90
18823;DHT22;9540;51.550;7.980;2023-07-30T00:04:44;16.70;99.90
18823;DHT22;9540;51.550;7.980;2023-07-30T00:07:12;16.60;99.90
18823;DHT22;9540;51.550;7.980;2023-07-30T00:09:40;16.60;99.90
18823;DHT22;9540;51.550;7.980;2023-07-30T00:12:08;16.60;99.90
18823;DHT22;9540;51.550;7.980;2023-07-30T00:14:36;16.50;99.90
18823;DHT22;9540;51.550;7.980;2023-07-30T00:17:04;16.50;99.90
18823;DHT22;9540;51.550;7.980;2023-07-30T00:19:31;16.50;99.90
18823;DHT22;9540;51.550;7.980;2023-07-30T00:22:00;16.40;99.90
18823;DHT22;9540;51.550;7.980;2023-07-30T00:24:27;16.40;99.90
18823;DHT22;9540;51.550;7.980;2023-07-30T00:26:54;16.30;99.90
18823;DHT22;9540;51.550;7.980;2023-07-30T00:29:21;16.30;99.90
18823;DHT22;9540;51.550;7.980;2023-07-30T00:31:48;16.20;99.90
18823;DHT22;9540;51.550;7.980;2023-07-30T00:34:15;16.20;99.90
18823;DHT22;9540;51.550;7.980;2023-07-30T00:36:43;16.20;99.90
18823;DHT22;9540;51.550;7.980;2023-07-30T00:39:11;16.10;99.90
18823;DHT22;9540;51.550;7.980;2023-07-30T00:41:38;16.10;99.90
18823;DHT22;9540;51.550;7.980;2023-07-30T00:44:05;16.10;99.90
18823;DHT22;9540;51.550;7.980;2023-07-30T00:46:33;16.00;99.90
18823;DHT22;9540;51.550;7.980;2023-07-30T00:49:00;16.00;99.90
18823;DHT22;9540;51.550;7.980;2023-07-30T00:51:28;16.00;99.90
18823;DHT22;9540;51.550;7.980;2023-07-30T00:53:56;15.90;99.90
18823;DHT22;9540;51.550;7.980;2023-07-30T00:56:25;15.90;99.90
18823;DHT22;9540;51.550;7.980;2023-07-30T00:58:53;15.90;99.90
18823;DHT22;9540;51.550;7.980;2023-07-30T01:01:20;15.80;99.90
18823;DHT22;9540;51.550;7.980;2023-07-30T01:03:48;15.80;99.90
18823;DHT22;9540;51.550;7.980;2023-07-30T01:06:15;15.80;99.90
18823;DHT22;9540;51.550;7.980;2023-07-30T01:08:43;15.80;99.90
18823;DHT22;9540;51.550;7.980;2023-07-30T01:11:10;15.80;99.90
18823;DHT22;9540;51.550;7.980;2023-07-30T01:13:39;15.80;99.90
18823;DHT22;9540;51.550;7.980;2023-07-30T01:16:06;15.80;99.90
18823;DHT22;9540;51.550;7.980;2023-07-30T01:18:33;15.80;99.90
18823;DHT22;9540;51.550;7.980;2023-07-30T01:21:02;15.80;99.90
18823;DHT22;9540;51.550;7.980;2023-07-30T01:23:29;15.80;99.90
18823;DHT22;9540;51.550;7.980;2023-07-30T01:26:02;15.70;99.90
18823;DHT22;9540;51.550;7.980;2023-07-30T01:28:36;15.70;99.90
18823;DHT22;9540;51.550;7.980;2023-07-30T01:31:05;15.70;99.90
18823;DHT22;9540;51.550;7.980;2023-07-30T01:33:33;15.60;99.90
18823;DHT22;9540;51.550;7.980;2023-07-30T01:36:03;15.50;99.90
18823;DHT22;9540;51.550;7.980;2023-07-30T01:38:30;15.50;99.90
18823;DHT22;9540;51.550;7.980;2023-07-30T01:40:58;15.40;99.90
18823;DHT22;9540;51.550;7.980;2023-07-30T01:43:30;15.40;99.90
18823;DHT22;9540;51.550;7.980;2023-07-30T01:45:57;15.30;99.90
18823;DHT22;9540;51.550;7.980;2023-07-30T01:48:24;15.20;99.90
18823;DHT22;9540;51.550;7.980;2023-07-30T01:50:51;15.10;99.90
18823;DHT22;9540;51.550;7.980;2023-07-30T01:53:20;15.00;99.90
18823;DHT22;9540;51.550;7.980;2023-07-30T01:55:47;14.90;99.90
18823;DHT22;9540;51.550;7.980;2023-07-30T01:58:14;14.90;99.90
18823;DHT22;9540;51.550;7.980;2023-07-30T02:00:43;14.90;99.90
18823;DHT22;9540;51.550;7.980;2023-07-30T02:03:14;14.80;99.90
18823;DHT22;9540;51.550;7.980;2023-07-30T02:05:41;14.70;99.90
18823;DHT22;9540;51.550;7.980;2023-07-30T02:08:08;14.70;99.90
18823;DHT22;9540;51.550;7.980;2023-07-30T02:10:37;14.60;99.90
18823;DHT22;9540;51.550;7.980;2023-07-30T02:13:04;14.50;99.90
18823;DHT22;9540;51.550;7.980;2023-07-30T02:15:32;14.50;99.90
18823;DHT22;9540;51.550;7.980;2023-07-30T02:17:59;14.50;99.90
18823;DHT22;9540;51.550;7.980;2023-07-30T02:20:26;14.50;99.90
18823;DHT22;9540;51.550;7.980;2023-07-30T02:22:53;14.40;99.90
18823;DHT22;9540;51.550;7.980;2023-07-30T02:25:20;14.40;99.90
18823;DHT22;9540;51.550;7.980;2023-07-30T02:27:49;14.40;99.90
18823;DHT22;9540;51.550;7.980;2023-07-30T02:30:16;14.30;99.90
18823;DHT22;9540;51.550;7.980;2023-07-30T02:32:43;14.30;99.90
18823;DHT22;9540;51.550;7.980;2023-07-30T02:35:11;14.30;99.90
18823;DHT22;9540;51.550;7.980;2023-07-30T02:37:38;14.30;99.90
18823;DHT22;9540;51.550;7.980;2023-07-30T02:40:06;14.30;99.90
18823;DHT22;9540;51.550;7.980;2023-07-30T02:42:33;14.30;99.90
18823;DHT22;9540;51.550;7.980;2023-07-30T02:45:02;14.30;99.90
18823;DHT22;9540;51.550;7.980;2023-07-30T02:47:29;14.30;99.90
18823;DHT22;9540;51.550;7.980;2023-07-30T02:49:56;14.30;99.90
18823;DHT22;9540;51.550;7.980;2023-07-30T02:52:24;14.30;99.90
18823;DHT22;9540;51.550;7.980;2023-07-30T02:54:51;14.30;99.90
18823;DHT22;9540;51.550;7.980;2023-07-30T02:57:19;14.30;99.90
18823;DHT22;9540;51.550;7.980;2023-07-30T02:59:46;14.30;99.90
18823;DHT22;9540;51.550;7.980;2023-07-30T03:02:14;14.30;99.90
18823;DHT22;9540;51.550;7.980;2023-07-30T03:04:41;14.20;99.90
18823;DHT22;9540;51.550;7.980;2023-07-30T03:07:09;14.20;99.90
18823;DHT22;9540;51.550;7.980;2023-07-30T03:09:36;14.20;99.90
18823;DHT22;9540;51.550;7.980;2023-07-30T03:12:04;14.20;99.90
18823;DHT22;9540;51.550;7.980;2023-07-30T03:14:31;14.10;99.90
18823;DHT22;9540;51.550;7.980;2023-07-30T03:16:58;14.10;99.90
18823;DHT22;9540;51.550;7.980;2023-07-30T03:19:27;14.00;99.90
18823;DHT22;9540;51.550;7.980;2023-07-30T03:21:54;14.00;99.90
18823;DHT22;9540;51.550;7.980;2023-07-30T03:24:21;13.90;99.90
18823;DHT22;9540;51.550;7.980;2023-07-30T03:26:48;13.90;99.90
18823;DHT22;9540;51.550;7.980;2023-07-30T03:29:16;13.90;99.90
18823;DHT22;9540;51.550;7.980;2023-07-30T03:31:43;13.90;99.90
18823;DHT22;9540;51.550;7.980;2023-07-30T03:34:10;13.90;99.90
18823;DHT22;9540;51.550;7.980;2023-07-30T03:36:38;14.00;99.90
18823;DHT22;9540;51.550;7.980;2023-07-30T03:39:05;14.00;99.90
18823;DHT22;9540;51.550;7.980;2023-07-30T03:41:33;14.00;99.90
18823;DHT22;9540;51.550;7.980;2023-07-30T03:44:01;14.00;99.90
18823;DHT22;9540;51.550;7.980;2023-07-30T03:46:28;14.00;99.90
18823;DHT22;9540;51.550;7.980;2023-07-30T03:48:55;14.00;99.90
18823;DHT22;9540;51.550;7.980;2023-07-30T03:51:22;14.00;99.90
18823;DHT22;9540;51.550;7.980;2023-07-30T03:53:50;14.00;99.90
18823;DHT22;9540;51.550;7.980;2023-07-30T03:56:21;14.00;99.90
18823;DHT22;9540;51.550;7.980;2023-07-30T03:58:48;14.00;99.90
18823;DHT22;9540;51.550;7.980;2023-07-30T04:01:15;14.00;99.90
18823;DHT22;9540;51.550;7.980;2023-07-30T04:03:43;14.00;99.90
18823;DHT22;9540;51.550;7.980;2023-07-30T04:06:10;14.00;99.90
18823;DHT22;9540;51.550;7.980;2023-07-30T04:08:37;14.00;99.90
18823;DHT22;9540;51.550;7.980;2023-07-30T04:11:06;14.00;99.90
18823;DHT22;9540;51.550;7.980;2023-07-30T04:13:33;13.90;99.90
18823;DHT22;9540;51.550;7.980;2023-07-30T04:16:00;13.90;99.90
18823;DHT22;9540;51.550;7.980;2023-07-30T04:18:27;13.90;99.90
18823;DHT22;9540;51.550;7.980;2023-07-30T04:20:54;14.00;99.90
18823;DHT22;9540;51.550;7.980;2023-07-30T04:23:22;14.00;99.90
18823;DHT22;9540;51.550;7.980;2023-07-30T04:25:49;14.00;99.90
18823;DHT22;9540;51.550;7.980;2023-07-30T04:28:18;14.00;99.90
18823;DHT22;9540;51.550;7.980;2023-07-30T04:30:45;14.00;99.90
18823;DHT22;9540;51.550;7.980;2023-07-30T04:33:13;14.00;99.90
18823;DHT22;9540;51.550;7.980;2023-07-30T04:35:40;14.10;99.90
18823;DHT22;9540;51.550;7.980;2023-07-30T04:38:07;14.10;99.90
18823;DHT22;9540;51.550;7.980;2023-07-30T04:40:34;14.10;99.90
18823;DHT22;9540;51.550;7.980;2023-07-30T04:43:01;14.10;99.90
18823;DHT22;9540;51.550;7.980;2023-07-30T04:45:30;14.10;99.90
18823;DHT22;9540;51.550;7.980;2023-07-30T04:47:57;14.10;99.90
18823;DHT22;9540;51.550;7.980;2023-07-30T04:50:24;14.20;99.90
18823;DHT22;9540;51.550;7.980;2023-07-30T04:52:51;14.20;99.90
18823;DHT22;9540;51.550;7.980;2023-07-30T04:55:19;14.20;99.90
18823;DHT22;9540;51.550;7.980;2023-07-30T04:57:46;14.20;99.90
18823;DHT22;9540;51.550;7.980;2023-07-30T05:00:13;14.30;99.90
18823;DHT22;9540;51.550;7.980;2023-07-30T05:02:42;14.30;99.90
18823;DHT22;9540;51.550;7.980;2023-07-30T05:05:09;14.30;99.90
18823;DHT22;9540;51.550;7.980;2023-07-30T05:07:37;14.40;99.90
18823;DHT22;9540;51.550;7.980;2023-07-30T05:10:05;14.40;99.90
18823;DHT22;9540;51.550;7.980;2023-07-30T05:12:36;14.50;99.90
18823;DHT22;9540;51.550;7.980;2023-07-30T05:15:04;14.60;99.90
18823;DHT22;9540;51.550;7.980;2023-07-30T05:17:31;14.60;99.90
18823;DHT22;9540;51.550;7.980;2023-07-30T05:20:00;14.60;99.90
18823;DHT22;9540;51.550;7.980;2023-07-30T05:22:27;14.70;99.90
18823;DHT22;9540;51.550;7.980;2023-07-30T05:24:54;14.80;99.90
18823;DHT22;9540;51.550;7.980;2023-07-30T05:27:22;14.80;99.90
18823;DHT22;9540;51.550;7.980;2023-07-30T05:29:49;14.90;99.90
18823;DHT22;9540;51.550;7.980;2023-07-30T05:32:16;15.00;99.90
18823;DHT22;9540;51.550;7.980;2023-07-30T05:34:43;15.10;99.90
18823;DHT22;9540;51.550;7.980;2023-07-30T05:37:12;15.10;99.90
18823;DHT22;9540;51.550;7.980;2023-07-30T05:39:39;15.20;99.90
18823;DHT22;9540;51.550;7.980;2023-07-30T05:42:06;15.20;99.90
18823;DHT22;9540;51.550;7.980;2023-07-30T05:44:33;15.20;99.90
18823;DHT22;9540;51.550;7.980;2023-07-30T05:47:00;15.20;99.90
18823;DHT22;9540;51.550;7.980;2023-07-30T05:49:28;15.20;99.90
18823;DHT22;9540;51.550;7.980;2023-07-30T05:51:55;15.20;99.90
18823;DHT22;9540;51.550;7.980;2023-07-30T05:54:24;15.20;99.90
18823;DHT22;9540;51.550;7.980;2023-07-30T05:56:51;15.30;99.90
18823;DHT22;9540;51.550;7.980;2023-07-30T05:59:19;15.30;99.90
18823;DHT22;9540;51.550;7.980;2023-07-30T06:01:47;15.30;99.90
18823;DHT22;9540;51.550;7.980;2023-07-30T06:04:14;15.30;99.90
18823;DHT22;9540;51.550;7.980;2023-07-30T06:06:41;15.40;99.90
18823;DHT22;9540;51.550;7.980;2023-07-30T06:09:08;15.30;99.90
18823;DHT22;9540;51.550;7.980;2023-07-30T06:11:38;15.40;99.90
18823;DHT22;9540;51.550;7.980;2023-07-30T06:14:05;15.50;99.90
18823;DHT22;9540;51.550;7.980;2023-07-30T06:16:32;15.60;99.90
18823;DHT22;9540;51.550;7.980;2023-07-30T06:19:00;15.60;99.90
18823;DHT22;9540;51.550;7.980;2023-07-30T06:21:27;15.60;99.90
18823;DHT22;9540;51.550;7.980;2023-07-30T06:23:54;15.60;99.90
18823;DHT22;9540;51.550;7.980;2023-07-30T06:26:21;15.60;99.90
18823;DHT22;9540;51.550;7.980;2023-07-30T06:28:49;15.60;99.90
18823;DHT22;9540;51.550;7.980;2023-07-30T06:31:17;15.60;99.90
18823;DHT22;9540;51.550;7.980;2023-07-30T06:33:44;15.50;99.90
18823;DHT22;9540;51.550;7.980;2023-07-30T06:36:11;15.50;99.90
18823;DHT22;9540;51.550;7.980;2023-07-30T06:38:38;15.50;99.90
18823;DHT22;9540;51.550;7.980;2023-07-30T06:41:05;15.60;99.90
18823;DHT22;9540;51.550;7.980;2023-07-30T06:43:32;15.60;99.90
18823;DHT22;9540;51.550;7.980;2023-07-30T06:46:01;15.60;99.90
18823;DHT22;9540;51.550;7.980;2023-07-30T06:48:28;15.60;99.90
18823;DHT22;9540;51.550;7.980;2023-07-30T06:50:55;15.50;99.90
18823;DHT22;9540;51.550;7.980;2023-07-30T06:53:22;15.60;99.90
18823;DHT22;9540;51.550;7.980;2023-07-30T06:55:49;15.60;99.90
18823;DHT22;9540;51.550;7.980;2023-07-30T06:58:17;15.60;99.90
18823;DHT22;9540;51.550;7.980;2023-07-30T07:00:44;15.60;99.90
18823;DHT22;9540;51.550;7.980;2023-07-30T07:03:12;15.60;99.90
18823;DHT22;9540;51.550;7.980;2023-07-30T07:05:40;15.60;99.90
18823;DHT22;9540;51.550;7.980;2023-07-30T07:08:07;15.40;99.90
18823;DHT22;9540;51.550;7.980;2023-07-30T07:10:34;15.40;99.90
18823;DHT22;9540;51.550;7.980;2023-07-30T07:13:01;15.40;99.90
18823;DHT22;9540;51.550;7.980;2023-07-30T07:15:28;15.40;99.90
18823;DHT22;9540;51.550;7.980;2023-07-30T07:17:58;15.40;99.90
18823;DHT22;9540;51.550;7.980;2023-07-30T07:20:27;15.40;99.90
18823;DHT22;9540;51.550;7.980;2023-07-30T07:22:54;15.40;99.90
18823;DHT22;9540;51.550;7.980;2023-07-30T07:25:21;15.40;99.90
18823;DHT22;9540;51.550;7.980;2023-07-30T07:27:49;15.50;99.90
18823;DHT22;9540;51.550;7.980;2023-07-30T07:30:16;15.50;99.90
18823;DHT22;9540;51.550;7.980;2023-07-30T07:32:43;15.50;99.90
18823;DHT22;9540;51.550;7.980;2023-07-30T07:35:10;15.40;99.90
18823;DHT22;9540;51.550;7.980;2023-07-30T07:37:39;15.40;99.90
18823;DHT22;9540;51.550;7.980;2023-07-30T07:40:07;15.40;99.90
18823;DHT22;9540;51.550;7.980;2023-07-30T07:42:35;15.50;99.90
18823;DHT22;9540;51.550;7.980;2023-07-30T07:45:03;15.40;99.90
18823;DHT22;9540;51.550;7.980;2023-07-30T07:47:30;15.40;99.90
18823;DHT22;9540;51.550;7.980;2023-07-30T07:49:57;15.40;99.90
18823;DHT22;9540;51.550;7.980;2023-07-30T07:52:24;15.40;99.90
18823;DHT22;9540;51.550;7.980;2023-07-30T07:54:53;15.30;99.90
18823;DHT22;9540;51.550;7.980;2023-07-30T07:57:20;15.30;99.90
18823;DHT22;9540;51.550;7.980;2023-07-30T07:59:47;15.30;99.90
18823;DHT22;9540;51.550;7.980;2023-07-30T08:02:14;15.20;99.90
18823;DHT22;9540;51.550;7.980;2023-07-30T08:04:41;15.20;99.90
18823;DHT22;9540;51.550;7.980;2023-07-30T08:07:08;15.10;99.90
18823;DHT22;9540;51.550;7.980;2023-07-30T08:09:36;15.10;99.90
18823;DHT22;9540;51.550;7.980;2023-07-30T08:12:05;15.10;99.90
18823;DHT22;9540;51.550;7.980;2023-07-30T08:14:32;15.10;99.90
18823;DHT22;9540;51.550;7.980;2023-07-30T08:17:00;15.10;99.90
18823;DHT22;9540;51.550;7.980;2023-07-30T08:19:27;15.10;99.90
18823;DHT22;9540;51.550;7.980;2023-07-30T08:21:54;15.10;99.90
18823;DHT22;9540;51.550;7.980;2023-07-30T08:24:22;15.10;99.90
18823;DHT22;9540;51.550;7.980;2023-07-30T08:26:49;15.10;99.90
18823;DHT22;9540;51.550;7.980;2023-07-30T08:29:18;15.20;99.90
18823;DHT22;9540;51.550;7.980;2023-07-30T08:31:45;15.20;99.90
18823;DHT22;9540;51.550;7.980;2023-07-30T08:34:12;15.30;99.90
18823;DHT22;9540;51.550;7.980;2023-07-30T08:36:40;15.30;99.90
18823;DHT22;9540;51.550;7.980;2023-07-30T08:39:07;15.30;99.90
18823;DHT22;9540;51.550;7.980;2023-07-30T08:41:34;15.30;99.90
18823;DHT22;9540;51.550;7.980;2023-07-30T08:44:02;15.30;99.90
18823;DHT22;9540;51.550;7.980;2023-07-30T08:46:30;15.30;99.90
18823;DHT22;9540;51.550;7.980;2023-07-30T08:48:58;15.40;99.90
18823;DHT22;9540;51.550;7.980;2023-07-30T08:51:26;15.40;99.90
18823;DHT22;9540;51.550;7.980;2023-07-30T08:53:54;15.50;99.90
18823;DHT22;9540;51.550;7.980;2023-07-30T08:56:23;15.60;99.90
18823;DHT22;9540;51.550;7.980;2023-07-30T08:58:52;15.60;99.90
18823;DHT22;9540;51.550;7.980;2023-07-30T09:01:27;15.70;99.90
18823;DHT22;9540;51.550;7.980;2023-07-30T09:03:58;15.70;99.90
18823;DHT22;9540;51.550;7.980;2023-07-30T09:06:26;15.80;99.90
18823;DHT22;9540;51.550;7.980;2023-07-30T09:08:53;15.80;99.90
18823;DHT22;9540;51.550;7.980;2023-07-30T09:11:20;15.90;99.90
18823;DHT22;9540;51.550;7.980;2023-07-30T09:13:53;15.90;99.90
18823;DHT22;9540;51.550;7.980;2023-07-30T09:16:24;15.90;99.90
18823;DHT22;9540;51.550;7.980;2023-07-30T09:18:52;15.90;99.90
18823;DHT22;9540;51.550;7.980;2023-07-30T09:21:29;15.90;99.90
18823;DHT22;9540;51.550;7.980;2023-07-30T09:23:57;15.90;99.90
18823;DHT22;9540;51.550;7.980;2023-07-30T09:26:29;15.80;99.90
18823;DHT22;9540;51.550;7.980;2023-07-30T09:28:56;15.80;99.90
18823;DHT22;9540;51.550;7.980;2023-07-30T09:31:23;15.80;99.90
18823;DHT22;9540;51.550;7.980;2023-07-30T09:33:50;15.80;99.90
18823;DHT22;9540;51.550;7.980;2023-07-30T09:36:20;15.90;99.90
18823;DHT22;9540;51.550;7.980;2023-07-30T09:38:47;16.00;99.90
18823;DHT22;9540;51.550;7.980;2023-07-30T09:41:15;15.90;99.90
18823;DHT22;9540;51.550;7.980;2023-07-30T09:43:42;16.00;99.90
18823;DHT22;9540;51.550;7.980;2023-07-30T09:46:09;16.10;99.90
18823;DHT22;9540;51.550;7.980;2023-07-30T09:48:36;16.30;99.90
18823;DHT22;9540;51.550;7.980;2023-07-30T09:51:04;16.50;99.90
18823;DHT22;9540;51.550;7.980;2023-07-30T09:53:33;16.60;99.90
18823;DHT22;9540;51.550;7.980;2023-07-30T09:56:01;16.80;99.90
18823;DHT22;9540;51.550;7.980;2023-07-30T09:58:28;17.00;99.90
18823;DHT22;9540;51.550;7.980;2023-07-30T10:00:57;17.20;99.90
18823;DHT22;9540;51.550;7.980;2023-07-30T10:03:26;17.30;99.90
18823;DHT22;9540;51.550;7.980;2023-07-30T10:05:57;17.40;99.90
18823;DHT22;9540;51.550;7.980;2023-07-30T10:08:26;17.50;99.90
18823;DHT22;9540;51.550;7.980;2023-07-30T10:10:57;17.50;99.90
18823;DHT22;9540;51.550;7.980;2023-07-30T10:13:25;17.60;99.90
18823;DHT22;9540;51.550;7.980;2023-07-30T10:15:52;17.70;99.90
18823;DHT22;9540;51.550;7.980;2023-07-30T10:18:20;17.90;99.90
18823;DHT22;9540;51.550;7.980;2023-07-30T10:20:53;18.10;99.90
18823;DHT22;9540;51.550;7.980;2023-07-30T10:23:21;18.40;99.90
18823;DHT22;9540;51.550;7.980;2023-07-30T10:25:49;18.40;99.90
18823;DHT22;9540;51.550;7.980;2023-07-30T10:28:31;18.30;99.90
18823;DHT22;9540;51.550;7.980;2023-07-30T10:31:00;18.30;99.90
18823;DHT22;9540;51.550;7.980;2023-07-30T10:33:46;18.30;99.90
18823;DHT22;9540;51.550;7.980;2023-07-30T10:36:13;18.50;99.90
18823;DHT22;9540;51.550;7.980;2023-07-30T10:38:40;18.70;99.90
18823;DHT22;9540;51.550;7.980;2023-07-30T10:41:10;18.70;99.90
18823;DHT22;9540;51.550;7.980;2023-07-30T10:43:41;18.80;99.90
18823;DHT22;9540;51.550;7.980;2023-07-30T10:46:11;18.90;99.90
18823;DHT22;9540;51.550;7.980;2023-07-30T10:48:39;18.90;99.90
18823;DHT22;9540;51.550;7.980;2023-07-30T10:51:09;18.90;99.90
18823;DHT22;9540;51.550;7.980;2023-07-30T10:53:36;18.90;99.90
18823;DHT22;9540;51.550;7.980;2023-07-30T10:56:05;18.90;99.90
18823;DHT22;9540;51.550;7.980;2023-07-30T10:58:34;19.00;99.90
18823;DHT22;9540;51.550;7.980;2023-07-30T11:01:04;19.20;99.90
18823;DHT22;9540;51.550;7.980;2023-07-30T11:03:32;19.40;99.90
18823;DHT22;9540;51.550;7.980;2023-07-30T11:06:01;19.70;99.90
18823;DHT22;9540;51.550;7.980;2023-07-30T11:08:34;19.60;99.90
18823;DHT22;9540;51.550;7.980;2023-07-30T11:11:02;19.50;99.90
18823;DHT22;9540;51.550;7.980;2023-07-30T11:13:35;19.40;99.90
18823;DHT22;9540;51.550;7.980;2023-07-30T11:16:04;19.50;99.90
18823;DHT22;9540;51.550;7.980;2023-07-30T11:18:32;19.80;99.90
18823;DHT22;9540;51.550;7.980;2023-07-30T11:21:03;20.00;99.90
18823;DHT22;9540;51.550;7.980;2023-07-30T11:23:30;20.00;99.90
18823;DHT22;9540;51.550;7.980;2023-07-30T11:25:57;20.10;99.90
18823;DHT22;9540;51.550;7.980;2023-07-30T11:28:28;20.20;99.90
18823;DHT22;9540;51.550;7.980;2023-07-30T11:30:58;20.30;99.90
18823;DHT22;9540;51.550;7.980;2023-07-30T11:33:28;20.30;99.90
18823;DHT22;9540;51.550;7.980;2023-07-30T11:35:56;20.50;99.90
18823;DHT22;9540;51.550;7.980;2023-07-30T11:38:24;20.60;99.90
18823;DHT22;9540;51.550;7.980;2023-07-30T11:40:53;20.70;99.90
18823;DHT22;9540;51.550;7.980;2023-07-30T11:43:21;20.70;99.90
18823;DHT22;9540;51.550;7.980;2023-07-30T11:45:48;20.60;99.90
18823;DHT22;9540;51.550;7.980;2023-07-30T11:48:16;20.60;99.90
18823;DHT22;9540;51.550;7.980;2023-07-30T11:50:46;20.40;99.90
18823;DHT22;9540;51.550;7.980;2023-07-30T11:53:13;20.30;99.90
18823;DHT22;9540;51.550;7.980;2023-07-30T11:55:42;20.10;99.90
18823;DHT22;9540;51.550;7.980;2023-07-30T11:58:11;19.90;99.90
18823;DHT22;9540;51.550;7.980;2023-07-30T12:00:40;19.80;99.90
18823;DHT22;9540;51.550;7.980;2023-07-30T12:03:10;19.90;99.90
18823;DHT22;9540;51.550;7.980;2023-07-30T12:05:38;20.00;99.90
18823;DHT22;9540;51.550;7.980;2023-07-30T12:08:16;20.10;99.90
18823;DHT22;9540;51.550;7.980;2023-07-30T12:10:46;20.40;99.90
18823;DHT22;9540;51.550;7.980;2023-07-30T12:13:15;20.50;99.90
18823;DHT22;9540;51.550;7.980;2023-07-30T12:15:44;20.40;99.90
18823;DHT22;9540;51.550;7.980;2023-07-30T12:18:17;20.20;99.90
18823;DHT22;9540;51.550;7.980;2023-07-30T12:20:46;20.40;99.90
18823;DHT22;9540;51.550;7.980;2023-07-30T12:23:19;20.60;99.90
18823;DHT22;9540;51.550;7.980;2023-07-30T12:25:48;20.70;99.90
18823;DHT22;9540;51.550;7.980;2023-07-30T12:28:15;20.70;99.90
18823;DHT22;9540;51.550;7.980;2023-07-30T12:30:42;20.70;99.90
18823;DHT22;9540;51.550;7.980;2023-07-30T12:33:09;20.70;99.90
18823;DHT22;9540;51.550;7.980;2023-07-30T12:35:36;20.90;99.90
18823;DHT22;9540;51.550;7.980;2023-07-30T12:38:03;21.00;99.90
18823;DHT22;9540;51.550;7.980;2023-07-30T12:40:32;21.20;99.90
18823;DHT22;9540;51.550;7.980;2023-07-30T12:43:01;21.40;99.90
18823;DHT22;9540;51.550;7.980;2023-07-30T12:45:29;21.20;99.90
18823;DHT22;9540;51.550;7.980;2023-07-30T12:47:57;21.00;99.90
18823;DHT22;9540;51.550;7.980;2023-07-30T12:50:24;21.00;99.90
18823;DHT22;9540;51.550;7.980;2023-07-30T12:52:52;20.90;99.90
18823;DHT22;9540;51.550;7.980;2023-07-30T12:55:19;20.80;99.90
18823;DHT22;9540;51.550;7.980;2023-07-30T12:57:48;20.70;99.90
18823;DHT22;9540;51.550;7.980;2023-07-30T13:00:16;20.60;99.90
18823;DHT22;9540;51.550;7.980;2023-07-30T13:02:44;20.50;99.90
18823;DHT22;9540;51.550;7.980;2023-07-30T13:05:11;20.40;99.90
18823;DHT22;9540;51.550;7.980;2023-07-30T13:07:41;20.30;99.90
18823;DHT22;9540;51.550;7.980;2023-07-30T13:10:09;20.20;99.90
18823;DHT22;9540;51.550;7.980;2023-07-30T13:12:36;20.20;99.90
18823;DHT22;9540;51.550;7.980;2023-07-30T13:15:06;20.00;99.90
18823;DHT22;9540;51.550;7.980;2023-07-30T13:17:34;20.00;99.90
18823;DHT22;9540;51.550;7.980;2023-07-30T13:20:02;20.00;99.90
18823;DHT22;9540;51.550;7.980;2023-07-30T13:22:30;20.00;99.90
18823;DHT22;9540;51.550;7.980;2023-07-30T13:24:57;20.10;99.90
18823;DHT22;9540;51.550;7.980;2023-07-30T13:27:24;20.50;99.90
18823;DHT22;9540;51.550;7.980;2023-07-30T13:29:52;20.90;99.90
18823;DHT22;9540;51.550;7.980;2023-07-30T13:32:20;21.10;99.90
18823;DHT22;9540;51.550;7.980;2023-07-30T13:34:48;20.80;99.90
18823;DHT22;9540;51.550;7.980;2023-07-30T13:37:15;20.60;99.90
18823;DHT22;9540;51.550;7.980;2023-07-30T13:39:42;20.40;99.90
18823;DHT22;9540;51.550;7.980;2023-07-30T13:42:09;20.30;99.90
18823;DHT22;9540;51.550;7.980;2023-07-30T13:44:37;20.30;99.90
18823;DHT22;9540;51.550;7.980;2023-07-30T13:47:04;20.60;99.90
18823;DHT22;9540;51.550;7.980;2023-07-30T13:49:34;20.80;99.90
18823;DHT22;9540;51.550;7.980;2023-07-30T13:52:01;21.00;99.90
18823;DHT22;9540;51.550;7.980;2023-07-30T13:54:28;21.10;99.90
18823;DHT22;9540;51.550;7.980;2023-07-30T13:56:55;21.00;99.90
18823;DHT22;9540;51.550;7.980;2023-07-30T13:59:30;20.90;99.90
18823;DHT22;9540;51.550;7.980;2023-07-30T14:02:40;20.90;99.90
18823;DHT22;9540;51.550;7.980;2023-07-30T14:05:00;21.00;99.90
18823;DHT22;9540;51.550;7.980;2023-07-30T14:07:49;21.30;99.90
18823;DHT22;9540;51.550;7.980;2023-07-30T14:10:53;21.30;99.90
18823;DHT22;9540;51.550;7.980;2023-07-30T14:13:38;21.30;99.90
18823;DHT22;9540;51.550;7.980;2023-07-30T14:16:22;21.50;99.90
18823;DHT22;9540;51.550;7.980;2023-07-30T14:18:56;21.20;99.90
18823;DHT22;9540;51.550;7.980;2023-07-30T14:21:28;21.00;99.90
18823;DHT22;9540;51.550;7.980;2023-07-30T14:24:06;21.00;99.90
18823;DHT22;9540;51.550;7.980;2023-07-30T14:26:42;21.00;99.90
18823;DHT22;9540;51.550;7.980;2023-07-30T14:29:11;21.00;99.90
18823;DHT22;9540;51.550;7.980;2023-07-30T14:31:41;21.00;99.90
18823;DHT22;9540;51.550;7.980;2023-07-30T14:34:16;21.10;99.90
18823;DHT22;9540;51.550;7.980;2023-07-30T14:36:49;21.10;99.90
18823;DHT22;9540;51.550;7.980;2023-07-30T14:39:23;21.10;99.90
18823;DHT22;9540;51.550;7.980;2023-07-30T14:41:59;21.10;99.90
18823;DHT22;9540;51.550;7.980;2023-07-30T14:44:33;21.10;99.90
18823;DHT22;9540;51.550;7.980;2023-07-30T14:47:02;21.10;99.90
18823;DHT22;9540;51.550;7.980;2023-07-30T14:49:31;21.00;99.90
18823;DHT22;9540;51.550;7.980;2023-07-30T14:51:59;21.10;99.90
18823;DHT22;9540;51.550;7.980;2023-07-30T14:54:30;21.10;99.90
18823;DHT22;9540;51.550;7.980;2023-07-30T14:56:58;21.20;99.90
18823;DHT22;9540;51.550;7.980;2023-07-30T14:59:29;21.30;99.90
18823;DHT22;9540;51.550;7.980;2023-07-30T15:01:56;21.20;99.90
18823;DHT22;9540;51.550;7.980;2023-07-30T15:04:34;21.10;99.90
18823;DHT22;9540;51.550;7.980;2023-07-30T15:07:07;21.00;99.90
18823;DHT22;9540;51.550;7.980;2023-07-30T15:09:36;21.10;99.90
18823;DHT22;9540;51.550;7.980;2023-07-30T15:12:04;21.20;99.90
18823;DHT22;9540;51.550;7.980;2023-07-30T15:14:37;21.20;99.90
18823;DHT22;9540;51.550;7.980;2023-07-30T15:17:14;21.10;99.90
18823;DHT22;9540;51.550;7.980;2023-07-30T15:19:41;20.90;99.90
18823;DHT22;9540;51.550;7.980;2023-07-30T15:22:16;20.80;99.90
18823;DHT22;9540;51.550;7.980;2023-07-30T15:24:44;20.60;99.90
18823;DHT22;9540;51.550;7.980;2023-07-30T15:27:11;20.40;99.90
18823;DHT22;9540;51.550;7.980;2023-07-30T15:29:44;20.30;99.90
18823;DHT22;9540;51.550;7.980;2023-07-30T15:32:11;20.20;99.90
18823;DHT22;9540;51.550;7.980;2023-07-30T15:34:51;20.10;99.90
18823;DHT22;9540;51.550;7.980;2023-07-30T15:37:22;20.00;99.90
18823;DHT22;9540;51.550;7.980;2023-07-30T15:40:02;20.00;99.90
18823;DHT22;9540;51.550;7.980;2023-07-30T15:42:40;20.10;99.90
18823;DHT22;9540;51.550;7.980;2023-07-30T15:45:13;20.20;99.90
18823;DHT22;9540;51.550;7.980;2023-07-30T15:47:50;20.30;99.90
18823;DHT22;9540;51.550;7.980;2023-07-30T15:50:22;20.40;99.90
18823;DHT22;9540;51.550;7.980;2023-07-30T15:53:00;20.70;99.90
18823;DHT22;9540;51.550;7.980;2023-07-30T15:55:28;20.70;99.90